This is the latest recevied weather packets stored in our database for station/object ZR6G-15. If no packets are shown the sender has not sent any weather packets the latest 10 day(s).
| Time | Temp. | Humidity | Pressure | Rain* | Wind** | Luminosity | Snow |
|---|---|---|---|---|---|---|---|
| 1778228840 | 13.89° C | 19% | 1014.5 hPa | - | - | - | - |
| 1778228235 | 12.78° C | 19% | 1015.2 hPa | - | - | - | - |
| 1778227627 | 12.78° C | 26% | 1016.1 hPa | - | - | - | - |
| 1778227023 | 10.56° C | 29% | 1017 hPa | - | - | - | - |
| 1778226418 | 10° C | 34% | 1017.6 hPa | - | - | - | - |
| 1778225813 | 10° C | 36% | 1017.9 hPa | - | - | - | - |
| 1778225209 | 10° C | 38% | 1018 hPa | - | - | - | - |
| 1778224604 | 8.89° C | 34% | 1018 hPa | - | - | - | - |
| 1778223999 | 8.89° C | 38% | 1018 hPa | - | - | - | - |
| 1778223394 | 8.89° C | 41% | 1018.1 hPa | - | - | - | - |
| 1778222790 | 8.89° C | 38% | 1018.3 hPa | - | - | - | - |
| 1778222185 | 8.89° C | 43% | 1018.6 hPa | - | - | - | - |
| 1778221580 | 6.67° C | 48% | 1019.3 hPa | - | - | - | - |
| 1778220976 | 5.56° C | 46% | 1019.3 hPa | - | - | - | - |
| 1778220371 | 5° C | 48% | 1019.8 hPa | - | - | - | - |
| 1778219767 | 5° C | 48% | 1020 hPa | - | - | - | - |
| 1778219162 | 5° C | 48% | 1020.3 hPa | - | - | - | - |
| 1778218557 | 3.89° C | 48% | 1020.6 hPa | - | - | - | - |
| 1778217952 | 2.78° C | 49% | 1020.7 hPa | - | - | - | - |
| 1778217348 | 2.78° C | 48% | 1020.9 hPa | - | - | - | - |
| 1778216743 | 2.78° C | 46% | 1020.9 hPa | - | - | - | - |
| 1778216138 | 2.78° C | 46% | 1020.9 hPa | - | - | - | - |
| 1778215534 | 2.78° C | 46% | 1020.9 hPa | - | - | - | - |
| 1778214929 | 2.78° C | 46% | 1020.8 hPa | - | - | - | - |
| 1778214324 | 2.78° C | 46% | 1020.6 hPa | - | - | - | - |
* Rain since midnight (hover to see other rain measurements)
** Current wind speed in m/s (hover to see current wind gust speed)